SAS950 CYYZ-EKCH
Flight info
| Callsign | SAS950 |
|---|---|
| Flight time | N/A |
| Altitude | 35000 |
| Route | SEDOG6 BOBSU DCT BAREE N647B RIKAL/M076F370 NATS SOVED/N0430F370 DCT APSOV DCT TUXOS DCT SURAT DCT PETIL DCT TESPI |
| Aircraft | A21N/M-SDE2E3FGHIJ1RWXY/LB1 |
Departure
| Time | 2026-05-06 03:03 |
|---|---|
| Airport | Toronto Pearson International Airport (CYYZ) |
Arrival
| Time | N/A |
|---|---|
| Airport | Copenhagen Kastrup Airport (EKCH) |
| Time | Latitude | Longitude | Altitude | Speed | Heading |
|---|---|---|---|---|---|
| 2026-05-06 02:01 | 43.68210 | -79.62079 | 567 ft | 0 kts | 69° |
| 2026-05-06 02:52 | 43.68203 | -79.62105 | 574 ft | 4 kts | 69° |
| 2026-05-06 02:52 | 43.68193 | -79.62140 | 570 ft | 4 kts | 69° |
| 2026-05-06 02:52 | 43.68185 | -79.62170 | 570 ft | 4 kts | 75° |
| 2026-05-06 02:52 | 43.68181 | -79.62206 | 567 ft | 4 kts | 94° |
| 2026-05-06 02:53 | 43.68188 | -79.62240 | 567 ft | 4 kts | 127° |
| 2026-05-06 02:53 | 43.68208 | -79.62261 | 567 ft | 4 kts | 163° |
| 2026-05-06 02:53 | 43.68233 | -79.62263 | 575 ft | 4 kts | 197° |
| 2026-05-06 02:53 | 43.68247 | -79.62252 | 567 ft | 0 kts | 241° |
| 2026-05-06 02:56 | 43.68244 | -79.62257 | 567 ft | 2 kts | 221° |
| 2026-05-06 02:56 | 43.68223 | -79.62250 | 567 ft | 4 kts | 148° |
| 2026-05-06 02:56 | 43.68193 | -79.62214 | 567 ft | 7 kts | 136° |
| 2026-05-06 02:56 | 43.68150 | -79.62156 | 567 ft | 10 kts | 137° |
| 2026-05-06 02:57 | 43.68091 | -79.62082 | 570 ft | 13 kts | 137° |
| 2026-05-06 02:57 | 43.68024 | -79.61995 | 570 ft | 14 kts | 136° |
| 2026-05-06 02:57 | 43.67941 | -79.61917 | 571 ft | 15 kts | 154° |
| 2026-05-06 02:57 | 43.67846 | -79.61839 | 567 ft | 16 kts | 137° |
| 2026-05-06 02:58 | 43.67762 | -79.61728 | 567 ft | 17 kts | 136° |
| 2026-05-06 02:58 | 43.67704 | -79.61653 | 571 ft | 11 kts | 136° |
| 2026-05-06 02:58 | 43.67650 | -79.61570 | 567 ft | 12 kts | 132° |
| 2026-05-06 02:58 | 43.67586 | -79.61485 | 567 ft | 13 kts | 137° |
| 2026-05-06 02:59 | 43.67523 | -79.61387 | 573 ft | 13 kts | 122° |
| 2026-05-06 02:59 | 43.67494 | -79.61308 | 573 ft | 7 kts | 117° |
| 2026-05-06 02:59 | 43.67449 | -79.61280 | 572 ft | 8 kts | 191° |
| 2026-05-06 02:59 | 43.67390 | -79.61309 | 570 ft | 10 kts | 202° |
| 2026-05-06 03:00 | 43.67323 | -79.61348 | 570 ft | 11 kts | 208° |
| 2026-05-06 03:00 | 43.67263 | -79.61413 | 571 ft | 6 kts | 222° |
| 2026-05-06 03:00 | 43.67244 | -79.61437 | 575 ft | 4 kts | 223° |
| 2026-05-06 03:00 | 43.67219 | -79.61469 | 572 ft | 6 kts | 223° |
| 2026-05-06 03:01 | 43.67186 | -79.61511 | 571 ft | 7 kts | 223° |
| 2026-05-06 03:01 | 43.67160 | -79.61547 | 571 ft | 4 kts | 238° |
| 2026-05-06 03:01 | 43.67162 | -79.61568 | 573 ft | 2 kts | 310° |
| 2026-05-06 03:01 | 43.67178 | -79.61586 | 571 ft | 6 kts | 320° |
| 2026-05-06 03:02 | 43.67336 | -79.61789 | 574 ft | 65 kts | 316° |
| 2026-05-06 03:02 | 43.67828 | -79.62430 | 574 ft | 127 kts | 316° |
| 2026-05-06 03:02 | 43.68592 | -79.63427 | 575 ft | 172 kts | 316° |
| 2026-05-06 03:02 | 43.69478 | -79.64571 | 1054 ft | 173 kts | 316° |
| 2026-05-06 03:03 | 43.70364 | -79.65737 | 1594 ft | 180 kts | 315° |
| 2026-05-06 03:03 | 43.71312 | -79.66976 | 2016 ft | 195 kts | 317° |
| 2026-05-06 03:03 | 43.72397 | -79.68227 | 2509 ft | 212 kts | 328° |
| 2026-05-06 03:03 | 43.73861 | -79.68684 | 2989 ft | 229 kts | 6° |
| 2026-05-06 03:04 | 43.75499 | -79.68179 | 3394 ft | 253 kts | 17° |
| 2026-05-06 03:04 | 43.77232 | -79.67463 | 4028 ft | 265 kts | 16° |
| 2026-05-06 03:04 | 43.79017 | -79.66744 | 4838 ft | 269 kts | 15° |
| 2026-05-06 03:04 | 43.80832 | -79.66034 | 5678 ft | 273 kts | 14° |
| 2026-05-06 03:05 | 43.82670 | -79.65330 | 6512 ft | 276 kts | 13° |
| 2026-05-06 03:05 | 43.84535 | -79.64625 | 7312 ft | 280 kts | 12° |
| 2026-05-06 03:05 | 43.86427 | -79.63916 | 8091 ft | 284 kts | 12° |
| 2026-05-06 03:05 | 43.88350 | -79.63198 | 8869 ft | 289 kts | 11° |
| 2026-05-06 03:06 | 43.90302 | -79.62471 | 9612 ft | 293 kts | 11° |
| 2026-05-06 03:06 | 43.92310 | -79.61723 | 10206 ft | 306 kts | 10° |
| 2026-05-06 03:06 | 43.94439 | -79.60936 | 10555 ft | 327 kts | 9° |
| 2026-05-06 03:06 | 43.96714 | -79.60095 | 10864 ft | 349 kts | 10° |
| 2026-05-06 03:07 | 43.99112 | -79.59200 | 11340 ft | 363 kts | 9° |
| 2026-05-06 03:07 | 44.01564 | -79.58215 | 12019 ft | 372 kts | 13° |
| 2026-05-06 03:07 | 44.04034 | -79.57032 | 12666 ft | 380 kts | 14° |
| 2026-05-06 03:07 | 44.06545 | -79.55810 | 13347 ft | 384 kts | 14° |
| 2026-05-06 03:08 | 44.09083 | -79.54570 | 14053 ft | 389 kts | 14° |
| 2026-05-06 03:08 | 44.11649 | -79.53316 | 14752 ft | 393 kts | 14° |
| 2026-05-06 03:08 | 44.14241 | -79.52055 | 15424 ft | 397 kts | 13° |
| 2026-05-06 03:08 | 44.16863 | -79.50780 | 16068 ft | 401 kts | 13° |
| 2026-05-06 03:09 | 44.19473 | -79.49508 | 16686 ft | 405 kts | 13° |
| 2026-05-06 03:09 | 44.22146 | -79.48204 | 17297 ft | 409 kts | 13° |
| 2026-05-06 03:09 | 44.24848 | -79.46886 | 17880 ft | 414 kts | 13° |
| 2026-05-06 03:09 | 44.27578 | -79.45547 | 18462 ft | 418 kts | 13° |
| 2026-05-06 03:10 | 44.30335 | -79.44198 | 19016 ft | 422 kts | 13° |
| 2026-05-06 03:10 | 44.33121 | -79.42838 | 19553 ft | 426 kts | 13° |
| 2026-05-06 03:10 | 44.35934 | -79.41459 | 20085 ft | 430 kts | 13° |
| 2026-05-06 03:10 | 44.38749 | -79.39954 | 20595 ft | 439 kts | 20° |
| 2026-05-06 03:11 | 44.41435 | -79.37830 | 21111 ft | 446 kts | 26° |
| 2026-05-06 03:11 | 44.44101 | -79.35558 | 21621 ft | 450 kts | 26° |
| 2026-05-06 03:11 | 44.46785 | -79.33269 | 22105 ft | 454 kts | 26° |
| 2026-05-06 03:11 | 44.49501 | -79.30967 | 22581 ft | 458 kts | 26° |
| 2026-05-06 03:12 | 44.52242 | -79.28649 | 23035 ft | 462 kts | 26° |
| 2026-05-06 03:12 | 44.55006 | -79.26313 | 23484 ft | 466 kts | 26° |
| 2026-05-06 03:12 | 44.57795 | -79.23954 | 23936 ft | 470 kts | 26° |
| 2026-05-06 03:12 | 44.60601 | -79.21581 | 24372 ft | 473 kts | 26° |
| 2026-05-06 03:13 | 44.63432 | -79.19182 | 24799 ft | 476 kts | 26° |
| 2026-05-06 03:13 | 44.66277 | -79.16767 | 25219 ft | 480 kts | 25° |
| 2026-05-06 03:13 | 44.69142 | -79.14338 | 25635 ft | 482 kts | 25° |
| 2026-05-06 03:13 | 44.72018 | -79.11889 | 26016 ft | 486 kts | 25° |
| 2026-05-06 03:14 | 44.74924 | -79.09419 | 26385 ft | 489 kts | 25° |
| 2026-05-06 03:14 | 44.77842 | -79.06937 | 26751 ft | 492 kts | 25° |
| 2026-05-06 03:14 | 44.80780 | -79.04432 | 27097 ft | 495 kts | 25° |
| 2026-05-06 03:14 | 44.83735 | -79.01908 | 27445 ft | 498 kts | 25° |
| 2026-05-06 03:15 | 44.86702 | -78.99369 | 27774 ft | 501 kts | 25° |
| 2026-05-06 03:15 | 44.89686 | -78.96806 | 28093 ft | 504 kts | 26° |
| 2026-05-06 03:15 | 44.92677 | -78.94197 | 28396 ft | 506 kts | 26° |
| 2026-05-06 03:15 | 44.95676 | -78.91566 | 28667 ft | 510 kts | 26° |
| 2026-05-06 03:16 | 44.98695 | -78.88915 | 28969 ft | 512 kts | 26° |
| 2026-05-06 03:16 | 45.01730 | -78.86255 | 29244 ft | 515 kts | 26° |
| 2026-05-06 03:16 | 45.04787 | -78.83577 | 29512 ft | 518 kts | 26° |
| 2026-05-06 03:16 | 45.07852 | -78.80885 | 29774 ft | 521 kts | 26° |
| 2026-05-06 03:17 | 45.10943 | -78.78168 | 30027 ft | 524 kts | 26° |
| 2026-05-06 03:17 | 45.12994 | -78.76361 | 30205 ft | 526 kts | 26° |
| 2026-05-06 03:17 | 45.16110 | -78.73616 | 30476 ft | 528 kts | 26° |
| 2026-05-06 03:17 | 45.20290 | -78.69926 | 30815 ft | 531 kts | 26° |
| 2026-05-06 03:18 | 45.22369 | -78.68086 | 30986 ft | 533 kts | 26° |
| 2026-05-06 03:18 | 45.25517 | -78.65298 | 31221 ft | 535 kts | 25° |
| 2026-05-06 03:18 | 45.28685 | -78.62491 | 31450 ft | 538 kts | 25° |
| 2026-05-06 03:18 | 45.31864 | -78.59672 | 31701 ft | 539 kts | 25° |
| 2026-05-06 03:19 | 45.35043 | -78.56845 | 31999 ft | 539 kts | 25° |
| 2026-05-06 03:19 | 45.38226 | -78.54013 | 32288 ft | 539 kts | 25° |
| 2026-05-06 03:19 | 45.41404 | -78.51184 | 32573 ft | 539 kts | 25° |
| 2026-05-06 03:19 | 45.44585 | -78.48345 | 32825 ft | 540 kts | 25° |
| 2026-05-06 03:20 | 45.50840 | -78.42371 | 33311 ft | 548 kts | 36° |
| 2026-05-06 03:20 | 45.53493 | -78.38425 | 33524 ft | 555 kts | 50° |
| 2026-05-06 03:20 | 45.55538 | -78.33747 | 33669 ft | 558 kts | 63° |
| 2026-05-06 03:21 | 45.57232 | -78.28760 | 33861 ft | 558 kts | 65° |
| 2026-05-06 03:21 | 45.58882 | -78.23744 | 34063 ft | 559 kts | 66° |
| 2026-05-06 03:21 | 45.60549 | -78.18726 | 34293 ft | 559 kts | 65° |
| 2026-05-06 03:21 | 45.62234 | -78.13731 | 34507 ft | 558 kts | 65° |
| 2026-05-06 03:22 | 45.63904 | -78.08808 | 34715 ft | 558 kts | 64° |
| 2026-05-06 03:22 | 45.65616 | -78.03754 | 34864 ft | 556 kts | 64° |
| 2026-05-06 03:22 | 45.68941 | -77.93893 | 34854 ft | 554 kts | 65° |
| 2026-05-06 03:23 | 45.72274 | -77.83967 | 34831 ft | 554 kts | 64° |
| 2026-05-06 03:23 | 45.75598 | -77.74039 | 34833 ft | 553 kts | 64° |
| 2026-05-06 03:24 | 45.78913 | -77.64099 | 34826 ft | 552 kts | 64° |
| 2026-05-06 03:24 | 45.82219 | -77.54153 | 34830 ft | 552 kts | 65° |
| 2026-05-06 03:25 | 45.85507 | -77.44215 | 34826 ft | 551 kts | 65° |
| 2026-05-06 03:25 | 45.88782 | -77.34276 | 34824 ft | 550 kts | 65° |
| 2026-05-06 03:26 | 45.92041 | -77.24362 | 34819 ft | 549 kts | 65° |
| 2026-05-06 03:26 | 45.95283 | -77.14447 | 34818 ft | 547 kts | 65° |
| 2026-05-06 03:27 | 45.98514 | -77.04536 | 34825 ft | 546 kts | 65° |
| 2026-05-06 03:27 | 46.01728 | -76.94633 | 34826 ft | 549 kts | 65° |
| 2026-05-06 03:28 | 46.04957 | -76.84655 | 34830 ft | 550 kts | 65° |
| 2026-05-06 03:28 | 46.08166 | -76.74693 | 34808 ft | 548 kts | 66° |
| 2026-05-06 03:29 | 46.11364 | -76.64728 | 34802 ft | 548 kts | 65° |
| 2026-05-06 03:29 | 46.14532 | -76.54827 | 34808 ft | 548 kts | 65° |
| 2026-05-06 03:30 | 46.17711 | -76.44842 | 34804 ft | 547 kts | 65° |
| 2026-05-06 03:30 | 46.20881 | -76.34852 | 34806 ft | 547 kts | 66° |
| 2026-05-06 03:31 | 46.24038 | -76.24870 | 34799 ft | 546 kts | 66° |
| 2026-05-06 03:31 | 46.27176 | -76.14884 | 34792 ft | 546 kts | 66° |
| 2026-05-06 03:32 | 46.30314 | -76.04882 | 34787 ft | 546 kts | 66° |
| 2026-05-06 03:32 | 46.33440 | -75.94877 | 34789 ft | 546 kts | 66° |
| 2026-05-06 03:33 | 46.36558 | -75.84857 | 34790 ft | 546 kts | 66° |
| 2026-05-06 03:33 | 46.39664 | -75.74833 | 34792 ft | 546 kts | 66° |
| 2026-05-06 03:34 | 46.42767 | -75.64779 | 34779 ft | 547 kts | 66° |
| 2026-05-06 03:34 | 46.45865 | -75.54702 | 34783 ft | 547 kts | 66° |
| 2026-05-06 03:35 | 46.48953 | -75.44613 | 34787 ft | 547 kts | 67° |
| 2026-05-06 03:35 | 46.52034 | -75.34509 | 34776 ft | 548 kts | 67° |
| 2026-05-06 03:36 | 46.55109 | -75.24387 | 34769 ft | 548 kts | 67° |
| 2026-05-06 03:36 | 46.58176 | -75.14251 | 34771 ft | 548 kts | 67° |
| 2026-05-06 03:37 | 46.61231 | -75.04107 | 34773 ft | 547 kts | 67° |
| 2026-05-06 03:37 | 46.64279 | -74.93949 | 34768 ft | 548 kts | 67° |
| 2026-05-06 03:38 | 46.67321 | -74.83776 | 34770 ft | 548 kts | 67° |
| 2026-05-06 03:38 | 46.70330 | -74.73663 | 34769 ft | 548 kts | 67° |
| 2026-05-06 03:39 | 46.73350 | -74.63467 | 34769 ft | 548 kts | 67° |
| 2026-05-06 03:39 | 46.76366 | -74.53255 | 34768 ft | 549 kts | 67° |
| 2026-05-06 03:40 | 46.79375 | -74.43016 | 34774 ft | 549 kts | 68° |
| 2026-05-06 03:40 | 46.82373 | -74.32767 | 34769 ft | 549 kts | 68° |
| 2026-05-06 03:41 | 46.85366 | -74.22502 | 34759 ft | 550 kts | 68° |
| 2026-05-06 03:41 | 46.88354 | -74.12222 | 34759 ft | 550 kts | 68° |
| 2026-05-06 03:42 | 46.91331 | -74.01917 | 34761 ft | 551 kts | 68° |
| 2026-05-06 03:42 | 46.94305 | -73.91597 | 34755 ft | 551 kts | 68° |
| 2026-05-06 03:43 | 46.97272 | -73.81246 | 34752 ft | 552 kts | 68° |
| 2026-05-06 03:43 | 47.00233 | -73.70871 | 34746 ft | 553 kts | 68° |
| 2026-05-06 03:44 | 47.03169 | -73.60537 | 34748 ft | 554 kts | 68° |
| 2026-05-06 03:44 | 47.06119 | -73.50109 | 34751 ft | 553 kts | 69° |
| 2026-05-06 03:45 | 47.09064 | -73.39668 | 34752 ft | 554 kts | 69° |
| 2026-05-06 03:45 | 47.11992 | -73.29219 | 34749 ft | 554 kts | 69° |
| 2026-05-06 03:46 | 47.14916 | -73.18753 | 34748 ft | 554 kts | 69° |
| 2026-05-06 03:46 | 47.17832 | -73.08280 | 34739 ft | 554 kts | 69° |
| 2026-05-06 03:47 | 47.20734 | -72.97795 | 34742 ft | 553 kts | 69° |
| 2026-05-06 03:47 | 47.23629 | -72.87300 | 34743 ft | 554 kts | 69° |
| 2026-05-06 03:48 | 47.26510 | -72.76778 | 34739 ft | 554 kts | 70° |
| 2026-05-06 03:48 | 47.29389 | -72.66253 | 34738 ft | 555 kts | 70° |
| 2026-05-06 03:49 | 47.32248 | -72.55756 | 34728 ft | 556 kts | 70° |
| 2026-05-06 03:49 | 47.35122 | -72.45161 | 34720 ft | 557 kts | 70° |
| 2026-05-06 03:50 | 47.37986 | -72.34526 | 34715 ft | 558 kts | 70° |
| 2026-05-06 03:50 | 47.40848 | -72.23870 | 34716 ft | 558 kts | 70° |
| 2026-05-06 03:51 | 47.43699 | -72.13183 | 34718 ft | 560 kts | 70° |
| 2026-05-06 03:51 | 47.46551 | -72.02475 | 34720 ft | 561 kts | 70° |
| 2026-05-06 03:52 | 47.49394 | -71.91736 | 34723 ft | 560 kts | 70° |
| 2026-05-06 03:52 | 47.52213 | -71.81014 | 34713 ft | 559 kts | 70° |
| 2026-05-06 03:53 | 47.55022 | -71.70282 | 34720 ft | 559 kts | 71° |
| 2026-05-06 03:53 | 47.57820 | -71.59546 | 34722 ft | 558 kts | 71° |
| 2026-05-06 03:54 | 47.60613 | -71.48817 | 34719 ft | 558 kts | 70° |
| 2026-05-06 03:54 | 47.63367 | -71.38156 | 34718 ft | 557 kts | 71° |
| 2026-05-06 03:55 | 47.66125 | -71.27451 | 34712 ft | 554 kts | 71° |
| 2026-05-06 03:55 | 47.68869 | -71.16772 | 34711 ft | 554 kts | 71° |
| 2026-05-06 03:56 | 47.71591 | -71.06102 | 34709 ft | 552 kts | 71° |
| 2026-05-06 03:56 | 47.74304 | -70.95440 | 34711 ft | 551 kts | 71° |
| 2026-05-06 03:57 | 47.76987 | -70.84813 | 34708 ft | 548 kts | 70° |
| 2026-05-06 03:57 | 47.79660 | -70.74190 | 34707 ft | 549 kts | 70° |
| 2026-05-06 03:58 | 47.82326 | -70.63554 | 34709 ft | 548 kts | 70° |
| 2026-05-06 03:58 | 47.84973 | -70.52912 | 34706 ft | 548 kts | 71° |
| 2026-05-06 03:59 | 47.87621 | -70.42237 | 34710 ft | 550 kts | 71° |
| 2026-05-06 03:59 | 47.90263 | -70.31538 | 34711 ft | 550 kts | 71° |
| 2026-05-06 04:00 | 47.92879 | -70.20890 | 34707 ft | 551 kts | 71° |
| 2026-05-06 04:00 | 47.95504 | -70.10155 | 34703 ft | 552 kts | 71° |
| 2026-05-06 04:01 | 47.98118 | -69.99404 | 34701 ft | 552 kts | 71° |
| 2026-05-06 04:01 | 48.00733 | -69.88604 | 34699 ft | 552 kts | 71° |
| 2026-05-06 04:02 | 48.03331 | -69.77821 | 34698 ft | 551 kts | 71° |
| 2026-05-06 04:02 | 48.05915 | -69.67039 | 34698 ft | 551 kts | 71° |
| 2026-05-06 04:03 | 48.08491 | -69.56249 | 34699 ft | 551 kts | 71° |
| 2026-05-06 04:03 | 48.11050 | -69.45471 | 34694 ft | 549 kts | 72° |
| 2026-05-06 04:04 | 48.13592 | -69.34696 | 34690 ft | 548 kts | 72° |
| 2026-05-06 04:04 | 48.16603 | -69.24220 | 34692 ft | 548 kts | 63° |
| 2026-05-06 04:05 | 48.20012 | -69.14027 | 34682 ft | 547 kts | 63° |
| 2026-05-06 04:05 | 48.23395 | -69.03843 | 34682 ft | 545 kts | 63° |
| 2026-05-06 04:06 | 48.26757 | -68.93663 | 34674 ft | 544 kts | 64° |
| 2026-05-06 04:06 | 48.30097 | -68.83479 | 34670 ft | 543 kts | 64° |
| 2026-05-06 04:07 | 48.33429 | -68.73311 | 34665 ft | 542 kts | 64° |
| 2026-05-06 04:07 | 48.36745 | -68.63161 | 34657 ft | 541 kts | 64° |
| 2026-05-06 04:08 | 48.39484 | -68.54718 | 34649 ft | 541 kts | 64° |
| 2026-05-06 04:08 | 48.42772 | -68.44559 | 34649 ft | 539 kts | 64° |
| 2026-05-06 04:09 | 48.46034 | -68.34407 | 34642 ft | 538 kts | 64° |